sensor_id;sensor_type;location;lat;lon;timestamp;P1;durP1;ratioP1;P2;durP2;ratioP2
15645;SDS011;7922;43.622;1.476;2022-11-20T00:01:16;4.50;;;2.90;;
15645;SDS011;7922;43.622;1.476;2022-11-20T00:03:43;4.53;;;2.90;;
15645;SDS011;7922;43.622;1.476;2022-11-20T00:06:09;3.87;;;2.93;;
15645;SDS011;7922;43.622;1.476;2022-11-20T00:08:36;2.60;;;2.40;;
15645;SDS011;7922;43.622;1.476;2022-11-20T00:11:05;3.53;;;2.80;;
15645;SDS011;7922;43.622;1.476;2022-11-20T00:13:32;4.90;;;3.00;;
15645;SDS011;7922;43.622;1.476;2022-11-20T00:15:58;3.10;;;2.80;;
15645;SDS011;7922;43.622;1.476;2022-11-20T00:18:24;4.87;;;3.10;;
15645;SDS011;7922;43.622;1.476;2022-11-20T00:20:50;3.60;;;3.20;;
15645;SDS011;7922;43.622;1.476;2022-11-20T00:23:15;3.90;;;2.27;;
15645;SDS011;7922;43.622;1.476;2022-11-20T00:25:40;2.97;;;2.40;;
15645;SDS011;7922;43.622;1.476;2022-11-20T00:28:05;4.50;;;2.90;;
15645;SDS011;7922;43.622;1.476;2022-11-20T00:30:31;2.63;;;2.43;;
15645;SDS011;7922;43.622;1.476;2022-11-20T00:32:56;3.17;;;2.80;;
15645;SDS011;7922;43.622;1.476;2022-11-20T00:35:21;4.20;;;2.63;;
15645;SDS011;7922;43.622;1.476;2022-11-20T00:37:47;5.93;;;3.50;;
15645;SDS011;7922;43.622;1.476;2022-11-20T00:40:12;4.27;;;2.33;;
15645;SDS011;7922;43.622;1.476;2022-11-20T00:42:37;3.07;;;2.70;;
15645;SDS011;7922;43.622;1.476;2022-11-20T00:45:03;3.97;;;2.40;;
15645;SDS011;7922;43.622;1.476;2022-11-20T00:47:28;2.90;;;2.57;;
15645;SDS011;7922;43.622;1.476;2022-11-20T00:49:54;3.83;;;2.40;;
15645;SDS011;7922;43.622;1.476;2022-11-20T00:52:19;3.57;;;2.30;;
15645;SDS011;7922;43.622;1.476;2022-11-20T00:54:44;4.70;;;3.00;;
15645;SDS011;7922;43.622;1.476;2022-11-20T00:57:09;2.30;;;1.90;;
15645;SDS011;7922;43.622;1.476;2022-11-20T00:59:35;2.90;;;2.70;;
15645;SDS011;7922;43.622;1.476;2022-11-20T01:02:00;2.40;;;2.10;;
15645;SDS011;7922;43.622;1.476;2022-11-20T01:04:25;3.13;;;2.33;;
15645;SDS011;7922;43.622;1.476;2022-11-20T01:06:50;2.70;;;2.40;;
15645;SDS011;7922;43.622;1.476;2022-11-20T01:09:16;3.80;;;3.00;;
15645;SDS011;7922;43.622;1.476;2022-11-20T01:11:42;2.93;;;2.63;;
15645;SDS011;7922;43.622;1.476;2022-11-20T01:14:12;3.47;;;1.90;;
15645;SDS011;7922;43.622;1.476;2022-11-20T01:16:43;2.13;;;1.80;;
15645;SDS011;7922;43.622;1.476;2022-11-20T01:19:11;5.00;;;3.90;;
15645;SDS011;7922;43.622;1.476;2022-11-20T01:21:39;3.00;;;2.80;;
15645;SDS011;7922;43.622;1.476;2022-11-20T01:24:06;3.07;;;2.10;;
15645;SDS011;7922;43.622;1.476;2022-11-20T01:26:32;3.10;;;2.70;;
15645;SDS011;7922;43.622;1.476;2022-11-20T01:28:59;3.70;;;2.53;;
15645;SDS011;7922;43.622;1.476;2022-11-20T01:31:29;3.30;;;2.37;;
15645;SDS011;7922;43.622;1.476;2022-11-20T01:33:56;2.30;;;1.93;;
15645;SDS011;7922;43.622;1.476;2022-11-20T01:36:23;2.87;;;1.80;;
15645;SDS011;7922;43.622;1.476;2022-11-20T01:38:57;3.13;;;1.90;;
15645;SDS011;7922;43.622;1.476;2022-11-20T01:41:24;4.10;;;2.03;;
15645;SDS011;7922;43.622;1.476;2022-11-20T01:43:50;2.13;;;1.70;;
15645;SDS011;7922;43.622;1.476;2022-11-20T01:46:17;2.97;;;2.13;;
15645;SDS011;7922;43.622;1.476;2022-11-20T01:51:50;2.17;;;1.80;;
15645;SDS011;7922;43.622;1.476;2022-11-20T01:54:17;2.20;;;2.10;;
15645;SDS011;7922;43.622;1.476;2022-11-20T01:56:46;2.40;;;1.87;;
15645;SDS011;7922;43.622;1.476;2022-11-20T01:59:13;2.57;;;1.90;;
15645;SDS011;7922;43.622;1.476;2022-11-20T02:01:40;2.60;;;2.40;;
15645;SDS011;7922;43.622;1.476;2022-11-20T02:04:06;2.33;;;2.00;;
15645;SDS011;7922;43.622;1.476;2022-11-20T02:06:35;2.40;;;2.10;;
15645;SDS011;7922;43.622;1.476;2022-11-20T02:09:01;2.67;;;2.10;;
15645;SDS011;7922;43.622;1.476;2022-11-20T02:11:26;2.27;;;1.93;;
15645;SDS011;7922;43.622;1.476;2022-11-20T02:13:52;5.67;;;2.10;;
15645;SDS011;7922;43.622;1.476;2022-11-20T02:16:22;3.00;;;1.93;;
15645;SDS011;7922;43.622;1.476;2022-11-20T02:18:49;3.40;;;2.77;;
15645;SDS011;7922;43.622;1.476;2022-11-20T02:21:24;3.50;;;1.93;;
15645;SDS011;7922;43.622;1.476;2022-11-20T02:24:09;2.43;;;2.10;;
15645;SDS011;7922;43.622;1.476;2022-11-20T02:26:47;3.00;;;2.10;;
15645;SDS011;7922;43.622;1.476;2022-11-20T02:29:16;2.93;;;1.97;;
15645;SDS011;7922;43.622;1.476;2022-11-20T02:31:44;3.77;;;2.47;;
15645;SDS011;7922;43.622;1.476;2022-11-20T02:34:10;2.30;;;2.10;;
15645;SDS011;7922;43.622;1.476;2022-11-20T02:36:36;2.10;;;1.97;;
15645;SDS011;7922;43.622;1.476;2022-11-20T02:39:02;2.30;;;2.10;;
15645;SDS011;7922;43.622;1.476;2022-11-20T02:41:32;3.70;;;2.37;;
15645;SDS011;7922;43.622;1.476;2022-11-20T02:44:01;3.63;;;2.57;;
15645;SDS011;7922;43.622;1.476;2022-11-20T02:46:26;4.73;;;3.77;;
15645;SDS011;7922;43.622;1.476;2022-11-20T02:48:52;4.10;;;3.10;;
15645;SDS011;7922;43.622;1.476;2022-11-20T02:51:17;3.40;;;2.80;;
15645;SDS011;7922;43.622;1.476;2022-11-20T02:53:43;3.20;;;2.23;;
15645;SDS011;7922;43.622;1.476;2022-11-20T02:56:08;5.50;;;4.37;;
15645;SDS011;7922;43.622;1.476;2022-11-20T02:58:33;7.10;;;4.10;;
15645;SDS011;7922;43.622;1.476;2022-11-20T03:00:59;7.97;;;5.03;;
15645;SDS011;7922;43.622;1.476;2022-11-20T03:03:24;6.30;;;3.97;;
15645;SDS011;7922;43.622;1.476;2022-11-20T03:05:50;4.80;;;3.03;;
15645;SDS011;7922;43.622;1.476;2022-11-20T03:08:15;3.70;;;2.90;;
15645;SDS011;7922;43.622;1.476;2022-11-20T03:10:40;3.17;;;2.73;;
15645;SDS011;7922;43.622;1.476;2022-11-20T03:13:05;3.63;;;3.00;;
15645;SDS011;7922;43.622;1.476;2022-11-20T03:15:31;4.60;;;3.40;;
15645;SDS011;7922;43.622;1.476;2022-11-20T03:17:56;5.17;;;2.70;;
15645;SDS011;7922;43.622;1.476;2022-11-20T03:20:21;5.07;;;2.87;;
15645;SDS011;7922;43.622;1.476;2022-11-20T03:22:47;4.20;;;2.40;;
15645;SDS011;7922;43.622;1.476;2022-11-20T03:25:12;3.17;;;2.40;;
15645;SDS011;7922;43.622;1.476;2022-11-20T03:27:37;4.80;;;2.87;;
15645;SDS011;7922;43.622;1.476;2022-11-20T03:30:03;2.87;;;2.67;;
15645;SDS011;7922;43.622;1.476;2022-11-20T03:32:29;2.80;;;2.60;;
15645;SDS011;7922;43.622;1.476;2022-11-20T03:34:54;2.53;;;2.30;;
15645;SDS011;7922;43.622;1.476;2022-11-20T03:37:19;2.60;;;2.40;;
15645;SDS011;7922;43.622;1.476;2022-11-20T03:39:45;2.60;;;2.40;;
15645;SDS011;7922;43.622;1.476;2022-11-20T03:42:10;2.43;;;2.20;;
15645;SDS011;7922;43.622;1.476;2022-11-20T03:44:35;2.93;;;2.33;;
15645;SDS011;7922;43.622;1.476;2022-11-20T03:47:00;3.13;;;2.70;;
15645;SDS011;7922;43.622;1.476;2022-11-20T03:49:26;2.90;;;2.70;;
15645;SDS011;7922;43.622;1.476;2022-11-20T03:51:51;3.00;;;2.60;;
15645;SDS011;7922;43.622;1.476;2022-11-20T03:54:16;6.97;;;3.10;;
15645;SDS011;7922;43.622;1.476;2022-11-20T03:56:41;4.13;;;2.50;;
15645;SDS011;7922;43.622;1.476;2022-11-20T03:59:09;2.77;;;2.53;;
15645;SDS011;7922;43.622;1.476;2022-11-20T04:01:36;2.70;;;2.50;;
15645;SDS011;7922;43.622;1.476;2022-11-20T04:04:01;2.87;;;2.43;;
15645;SDS011;7922;43.622;1.476;2022-11-20T04:06:28;3.50;;;2.70;;
15645;SDS011;7922;43.622;1.476;2022-11-20T04:08:56;3.63;;;2.60;;
15645;SDS011;7922;43.622;1.476;2022-11-20T04:11:25;3.20;;;2.63;;
15645;SDS011;7922;43.622;1.476;2022-11-20T04:13:53;4.20;;;2.80;;
15645;SDS011;7922;43.622;1.476;2022-11-20T04:16:20;4.40;;;2.73;;
15645;SDS011;7922;43.622;1.476;2022-11-20T04:18:46;2.97;;;2.57;;
15645;SDS011;7922;43.622;1.476;2022-11-20T04:21:12;3.60;;;2.50;;
15645;SDS011;7922;43.622;1.476;2022-11-20T04:23:37;4.00;;;2.30;;
15645;SDS011;7922;43.622;1.476;2022-11-20T04:26:07;4.27;;;2.80;;
15645;SDS011;7922;43.622;1.476;2022-11-20T04:28:33;3.30;;;3.00;;
15645;SDS011;7922;43.622;1.476;2022-11-20T04:31:09;4.83;;;2.77;;
15645;SDS011;7922;43.622;1.476;2022-11-20T04:33:39;3.40;;;3.10;;
15645;SDS011;7922;43.622;1.476;2022-11-20T04:36:10;3.00;;;2.80;;
15645;SDS011;7922;43.622;1.476;2022-11-20T04:38:37;2.63;;;2.43;;
15645;SDS011;7922;43.622;1.476;2022-11-20T04:41:04;2.97;;;2.70;;
15645;SDS011;7922;43.622;1.476;2022-11-20T04:43:31;3.80;;;3.40;;
15645;SDS011;7922;43.622;1.476;2022-11-20T04:45:57;4.83;;;2.47;;
15645;SDS011;7922;43.622;1.476;2022-11-20T04:48:23;3.40;;;3.10;;
15645;SDS011;7922;43.622;1.476;2022-11-20T04:50:48;3.83;;;3.43;;
15645;SDS011;7922;43.622;1.476;2022-11-20T04:53:14;4.03;;;3.47;;
15645;SDS011;7922;43.622;1.476;2022-11-20T04:55:39;3.13;;;2.93;;
15645;SDS011;7922;43.622;1.476;2022-11-20T04:58:04;3.53;;;3.23;;
15645;SDS011;7922;43.622;1.476;2022-11-20T05:00:30;4.10;;;3.60;;
15645;SDS011;7922;43.622;1.476;2022-11-20T05:02:55;3.40;;;3.07;;
15645;SDS011;7922;43.622;1.476;2022-11-20T05:05:20;4.80;;;3.57;;
15645;SDS011;7922;43.622;1.476;2022-11-20T05:07:46;4.37;;;3.50;;
15645;SDS011;7922;43.622;1.476;2022-11-20T05:10:11;4.23;;;3.80;;
15645;SDS011;7922;43.622;1.476;2022-11-20T05:12:36;5.43;;;4.20;;
15645;SDS011;7922;43.622;1.476;2022-11-20T05:15:01;3.73;;;3.43;;
15645;SDS011;7922;43.622;1.476;2022-11-20T05:17:27;6.80;;;3.70;;
15645;SDS011;7922;43.622;1.476;2022-11-20T05:19:52;5.03;;;3.70;;
15645;SDS011;7922;43.622;1.476;2022-11-20T05:22:17;4.57;;;3.80;;
15645;SDS011;7922;43.622;1.476;2022-11-20T05:24:43;3.90;;;3.47;;
15645;SDS011;7922;43.622;1.476;2022-11-20T05:27:08;4.00;;;3.67;;
15645;SDS011;7922;43.622;1.476;2022-11-20T05:29:33;4.57;;;3.60;;
15645;SDS011;7922;43.622;1.476;2022-11-20T05:31:58;4.37;;;3.60;;
15645;SDS011;7922;43.622;1.476;2022-11-20T05:34:24;5.60;;;3.90;;
15645;SDS011;7922;43.622;1.476;2022-11-20T05:36:49;3.97;;;3.57;;
15645;SDS011;7922;43.622;1.476;2022-11-20T05:39:14;5.23;;;3.87;;
15645;SDS011;7922;43.622;1.476;2022-11-20T05:41:39;4.80;;;3.40;;
15645;SDS011;7922;43.622;1.476;2022-11-20T05:44:05;3.50;;;3.20;;
15645;SDS011;7922;43.622;1.476;2022-11-20T05:46:30;3.40;;;3.10;;
15645;SDS011;7922;43.622;1.476;2022-11-20T05:48:56;4.23;;;3.70;;
15645;SDS011;7922;43.622;1.476;2022-11-20T05:51:22;5.17;;;3.50;;
15645;SDS011;7922;43.622;1.476;2022-11-20T05:53:47;4.87;;;3.63;;
15645;SDS011;7922;43.622;1.476;2022-11-20T05:56:13;4.00;;;3.60;;
15645;SDS011;7922;43.622;1.476;2022-11-20T05:58:42;4.50;;;3.90;;
15645;SDS011;7922;43.622;1.476;2022-11-20T06:01:12;3.50;;;3.20;;
15645;SDS011;7922;43.622;1.476;2022-11-20T06:03:37;3.83;;;3.40;;
15645;SDS011;7922;43.622;1.476;2022-11-20T06:06:04;6.00;;;3.33;;
15645;SDS011;7922;43.622;1.476;2022-11-20T06:08:30;3.83;;;3.40;;
15645;SDS011;7922;43.622;1.476;2022-11-20T06:10:55;3.57;;;3.17;;
15645;SDS011;7922;43.622;1.476;2022-11-20T06:13:21;4.20;;;3.47;;
15645;SDS011;7922;43.622;1.476;2022-11-20T06:15:50;4.20;;;3.77;;
15645;SDS011;7922;43.622;1.476;2022-11-20T06:18:16;4.30;;;3.90;;
15645;SDS011;7922;43.622;1.476;2022-11-20T06:20:42;6.00;;;4.63;;
15645;SDS011;7922;43.622;1.476;2022-11-20T06:23:07;6.03;;;3.70;;
15645;SDS011;7922;43.622;1.476;2022-11-20T06:25:32;4.00;;;3.60;;
15645;SDS011;7922;43.622;1.476;2022-11-20T06:27:58;4.67;;;3.80;;
15645;SDS011;7922;43.622;1.476;2022-11-20T06:30:23;4.90;;;3.87;;
15645;SDS011;7922;43.622;1.476;2022-11-20T06:32:48;4.83;;;4.17;;
15645;SDS011;7922;43.622;1.476;2022-11-20T06:35:13;4.37;;;3.80;;
15645;SDS011;7922;43.622;1.476;2022-11-20T06:37:39;4.90;;;4.23;;
15645;SDS011;7922;43.622;1.476;2022-11-20T06:40:04;4.17;;;3.67;;
15645;SDS011;7922;43.622;1.476;2022-11-20T06:42:30;5.57;;;4.13;;
15645;SDS011;7922;43.622;1.476;2022-11-20T06:44:55;4.70;;;3.90;;
15645;SDS011;7922;43.622;1.476;2022-11-20T06:47:21;4.17;;;3.67;;
15645;SDS011;7922;43.622;1.476;2022-11-20T06:49:46;5.23;;;4.57;;
15645;SDS011;7922;43.622;1.476;2022-11-20T06:52:11;5.53;;;4.40;;
15645;SDS011;7922;43.622;1.476;2022-11-20T06:54:36;5.20;;;4.70;;
15645;SDS011;7922;43.622;1.476;2022-11-20T06:57:02;5.97;;;4.50;;
15645;SDS011;7922;43.622;1.476;2022-11-20T06:59:27;6.03;;;4.60;;
15645;SDS011;7922;43.622;1.476;2022-11-20T07:01:52;5.53;;;4.57;;
15645;SDS011;7922;43.622;1.476;2022-11-20T07:04:18;5.23;;;4.73;;
15645;SDS011;7922;43.622;1.476;2022-11-20T07:06:43;4.93;;;4.43;;
15645;SDS011;7922;43.622;1.476;2022-11-20T07:09:09;5.17;;;4.73;;
15645;SDS011;7922;43.622;1.476;2022-11-20T07:11:34;10.17;;;6.07;;
15645;SDS011;7922;43.622;1.476;2022-11-20T07:13:59;7.00;;;5.83;;
15645;SDS011;7922;43.622;1.476;2022-11-20T07:16:24;7.60;;;6.40;;
15645;SDS011;7922;43.622;1.476;2022-11-20T07:18:50;10.47;;;6.57;;
15645;SDS011;7922;43.622;1.476;2022-11-20T07:21:15;12.20;;;7.07;;
15645;SDS011;7922;43.622;1.476;2022-11-20T07:23:40;12.53;;;7.80;;
15645;SDS011;7922;43.622;1.476;2022-11-20T07:26:06;12.53;;;7.70;;
15645;SDS011;7922;43.622;1.476;2022-11-20T07:28:32;13.53;;;7.87;;
15645;SDS011;7922;43.622;1.476;2022-11-20T07:30:58;12.90;;;7.67;;
15645;SDS011;7922;43.622;1.476;2022-11-20T07:33:23;14.40;;;7.47;;
15645;SDS011;7922;43.622;1.476;2022-11-20T07:35:48;11.43;;;7.10;;
15645;SDS011;7922;43.622;1.476;2022-11-20T07:38:14;17.63;;;8.03;;
15645;SDS011;7922;43.622;1.476;2022-11-20T07:40:39;10.83;;;6.00;;
15645;SDS011;7922;43.622;1.476;2022-11-20T07:43:05;11.17;;;7.70;;
15645;SDS011;7922;43.622;1.476;2022-11-20T07:45:30;15.90;;;7.40;;
15645;SDS011;7922;43.622;1.476;2022-11-20T07:47:55;11.53;;;7.57;;
15645;SDS011;7922;43.622;1.476;2022-11-20T07:50:20;8.63;;;7.10;;
15645;SDS011;7922;43.622;1.476;2022-11-20T07:52:46;9.93;;;6.30;;
15645;SDS011;7922;43.622;1.476;2022-11-20T07:55:11;15.53;;;6.37;;
15645;SDS011;7922;43.622;1.476;2022-11-20T07:57:37;8.23;;;6.33;;
15645;SDS011;7922;43.622;1.476;2022-11-20T08:00:03;9.83;;;6.63;;
15645;SDS011;7922;43.622;1.476;2022-11-20T08:02:30;7.80;;;6.40;;
15645;SDS011;7922;43.622;1.476;2022-11-20T08:04:55;14.57;;;6.77;;
15645;SDS011;7922;43.622;1.476;2022-11-20T08:07:20;11.00;;;7.07;;
15645;SDS011;7922;43.622;1.476;2022-11-20T08:09:46;10.70;;;6.83;;
15645;SDS011;7922;43.622;1.476;2022-11-20T08:12:18;9.20;;;6.13;;
15645;SDS011;7922;43.622;1.476;2022-11-20T08:14:44;9.97;;;5.87;;
15645;SDS011;7922;43.622;1.476;2022-11-20T08:17:09;7.60;;;6.57;;
15645;SDS011;7922;43.622;1.476;2022-11-20T08:19:35;7.80;;;5.90;;
15645;SDS011;7922;43.622;1.476;2022-11-20T08:22:00;7.10;;;5.53;;
15645;SDS011;7922;43.622;1.476;2022-11-20T08:24:25;8.03;;;6.00;;
15645;SDS011;7922;43.622;1.476;2022-11-20T08:26:50;7.27;;;6.03;;
15645;SDS011;7922;43.622;1.476;2022-11-20T08:29:16;8.37;;;6.80;;
15645;SDS011;7922;43.622;1.476;2022-11-20T08:31:41;8.33;;;6.90;;
15645;SDS011;7922;43.622;1.476;2022-11-20T08:34:06;8.43;;;6.43;;
15645;SDS011;7922;43.622;1.476;2022-11-20T08:36:32;8.73;;;7.50;;
15645;SDS011;7922;43.622;1.476;2022-11-20T08:38:58;8.43;;;6.90;;
15645;SDS011;7922;43.622;1.476;2022-11-20T08:41:23;8.00;;;6.17;;
15645;SDS011;7922;43.622;1.476;2022-11-20T08:43:49;8.73;;;6.87;;
15645;SDS011;7922;43.622;1.476;2022-11-20T08:46:15;7.57;;;6.23;;
15645;SDS011;7922;43.622;1.476;2022-11-20T08:48:40;7.03;;;6.33;;
15645;SDS011;7922;43.622;1.476;2022-11-20T08:51:05;7.10;;;6.40;;
15645;SDS011;7922;43.622;1.476;2022-11-20T08:53:31;8.23;;;7.03;;
15645;SDS011;7922;43.622;1.476;2022-11-20T08:55:56;7.10;;;6.10;;
15645;SDS011;7922;43.622;1.476;2022-11-20T08:58:21;7.83;;;6.33;;
15645;SDS011;7922;43.622;1.476;2022-11-20T09:00:47;8.07;;;6.33;;
15645;SDS011;7922;43.622;1.476;2022-11-20T09:03:12;6.47;;;5.47;;
15645;SDS011;7922;43.622;1.476;2022-11-20T09:05:37;7.20;;;6.10;;
15645;SDS011;7922;43.622;1.476;2022-11-20T09:08:03;11.30;;;9.67;;
15645;SDS011;7922;43.622;1.476;2022-11-20T09:10:28;8.03;;;7.23;;
15645;SDS011;7922;43.622;1.476;2022-11-20T09:12:53;7.83;;;7.07;;
15645;SDS011;7922;43.622;1.476;2022-11-20T09:15:19;10.47;;;6.93;;
15645;SDS011;7922;43.622;1.476;2022-11-20T09:17:54;7.07;;;6.37;;
15645;SDS011;7922;43.622;1.476;2022-11-20T09:20:21;6.90;;;6.27;;
15645;SDS011;7922;43.622;1.476;2022-11-20T09:22:47;8.73;;;7.50;;
15645;SDS011;7922;43.622;1.476;2022-11-20T09:25:12;7.70;;;6.93;;
15645;SDS011;7922;43.622;1.476;2022-11-20T09:27:37;6.27;;;5.67;;
15645;SDS011;7922;43.622;1.476;2022-11-20T09:30:03;6.60;;;6.00;;
15645;SDS011;7922;43.622;1.476;2022-11-20T09:32:29;6.20;;;5.60;;
15645;SDS011;7922;43.622;1.476;2022-11-20T09:34:54;5.33;;;4.83;;
15645;SDS011;7922;43.622;1.476;2022-11-20T09:37:20;6.20;;;5.60;;
15645;SDS011;7922;43.622;1.476;2022-11-20T09:39:45;6.23;;;5.50;;
15645;SDS011;7922;43.622;1.476;2022-11-20T09:44:55;5.30;;;4.80;;
15645;SDS011;7922;43.622;1.476;2022-11-20T09:47:28;5.37;;;4.73;;
15645;SDS011;7922;43.622;1.476;2022-11-20T09:55:29;4.90;;;4.43;;
15645;SDS011;7922;43.622;1.476;2022-11-20T09:57:55;4.33;;;3.93;;
15645;SDS011;7922;43.622;1.476;2022-11-20T10:00:22;4.13;;;3.73;;
15645;SDS011;7922;43.622;1.476;2022-11-20T10:02:49;4.30;;;3.90;;
15645;SDS011;7922;43.622;1.476;2022-11-20T10:05:19;4.97;;;4.33;;
15645;SDS011;7922;43.622;1.476;2022-11-20T10:10:46;5.43;;;4.60;;
15645;SDS011;7922;43.622;1.476;2022-11-20T10:15:59;4.40;;;4.00;;
15645;SDS011;7922;43.622;1.476;2022-11-20T10:29:17;4.63;;;4.20;;
15645;SDS011;7922;43.622;1.476;2022-11-20T10:31:45;3.87;;;3.47;;
15645;SDS011;7922;43.622;1.476;2022-11-20T10:34:20;3.77;;;3.43;;
15645;SDS011;7922;43.622;1.476;2022-11-20T10:36:52;3.87;;;3.57;;
15645;SDS011;7922;43.622;1.476;2022-11-20T10:42:16;3.50;;;3.20;;
15645;SDS011;7922;43.622;1.476;2022-11-20T10:44:47;4.93;;;3.57;;
15645;SDS011;7922;43.622;1.476;2022-11-20T10:47:17;4.53;;;3.37;;
15645;SDS011;7922;43.622;1.476;2022-11-20T10:49:44;4.80;;;3.40;;
15645;SDS011;7922;43.622;1.476;2022-11-20T11:00:15;3.80;;;3.50;;
15645;SDS011;7922;43.622;1.476;2022-11-20T11:05:25;5.73;;;3.40;;
15645;SDS011;7922;43.622;1.476;2022-11-20T11:08:14;4.30;;;3.90;;
15645;SDS011;7922;43.622;1.476;2022-11-20T11:13:24;4.57;;;3.60;;
15645;SDS011;7922;43.622;1.476;2022-11-20T11:15:50;3.80;;;3.43;;
15645;SDS011;7922;43.622;1.476;2022-11-20T11:18:49;4.07;;;3.47;;
15645;SDS011;7922;43.622;1.476;2022-11-20T11:21:08;4.33;;;3.30;;
15645;SDS011;7922;43.622;1.476;2022-11-20T11:23:34;3.33;;;3.03;;
15645;SDS011;7922;43.622;1.476;2022-11-20T11:26:28;4.93;;;3.37;;
15645;SDS011;7922;43.622;1.476;2022-11-20T11:29:00;3.90;;;3.60;;
15645;SDS011;7922;43.622;1.476;2022-11-20T11:31:27;5.80;;;4.73;;
15645;SDS011;7922;43.622;1.476;2022-11-20T11:34:05;3.73;;;3.30;;
15645;SDS011;7922;43.622;1.476;2022-11-20T11:36:41;6.33;;;4.93;;
15645;SDS011;7922;43.622;1.476;2022-11-20T11:39:18;9.07;;;5.17;;
15645;SDS011;7922;43.622;1.476;2022-11-20T11:41:44;5.77;;;4.70;;
15645;SDS011;7922;43.622;1.476;2022-11-20T11:44:17;4.33;;;3.93;;
15645;SDS011;7922;43.622;1.476;2022-11-20T11:46:53;5.70;;;4.40;;
15645;SDS011;7922;43.622;1.476;2022-11-20T11:49:19;7.13;;;4.00;;
15645;SDS011;7922;43.622;1.476;2022-11-20T11:54:30;4.23;;;3.83;;
15645;SDS011;7922;43.622;1.476;2022-11-20T11:57:00;4.90;;;4.30;;
15645;SDS011;7922;43.622;1.476;2022-11-20T11:59:49;3.70;;;3.40;;
15645;SDS011;7922;43.622;1.476;2022-11-20T12:04:57;5.17;;;4.50;;
15645;SDS011;7922;43.622;1.476;2022-11-20T12:10:03;5.07;;;4.47;;
15645;SDS011;7922;43.622;1.476;2022-11-20T12:13:04;3.40;;;3.10;;
15645;SDS011;7922;43.622;1.476;2022-11-20T12:15:31;3.50;;;2.90;;
15645;SDS011;7922;43.622;1.476;2022-11-20T12:17:58;7.83;;;7.17;;
15645;SDS011;7922;43.622;1.476;2022-11-20T12:20:24;5.53;;;5.03;;
15645;SDS011;7922;43.622;1.476;2022-11-20T12:25:31;3.20;;;2.90;;
15645;SDS011;7922;43.622;1.476;2022-11-20T12:30:27;10.53;;;8.27;;
15645;SDS011;7922;43.622;1.476;2022-11-20T12:44:02;4.53;;;4.13;;
15645;SDS011;7922;43.622;1.476;2022-11-20T12:46:41;3.67;;;3.30;;
15645;SDS011;7922;43.622;1.476;2022-11-20T12:52:01;4.60;;;3.20;;
15645;SDS011;7922;43.622;1.476;2022-11-20T12:57:46;4.17;;;3.60;;
15645;SDS011;7922;43.622;1.476;2022-11-20T13:08:41;4.30;;;3.63;;
15645;SDS011;7922;43.622;1.476;2022-11-20T13:19:11;4.83;;;3.43;;
15645;SDS011;7922;43.622;1.476;2022-11-20T13:21:39;5.13;;;3.50;;
15645;SDS011;7922;43.622;1.476;2022-11-20T13:24:07;7.03;;;4.33;;
15645;SDS011;7922;43.622;1.476;2022-11-20T13:26:44;5.93;;;4.03;;
15645;SDS011;7922;43.622;1.476;2022-11-20T13:29:11;3.40;;;3.10;;
15645;SDS011;7922;43.622;1.476;2022-11-20T13:31:42;3.83;;;2.43;;
15645;SDS011;7922;43.622;1.476;2022-11-20T13:34:09;2.23;;;1.60;;
15645;SDS011;7922;43.622;1.476;2022-11-20T13:36:38;1.60;;;1.50;;
15645;SDS011;7922;43.622;1.476;2022-11-20T13:39:23;2.10;;;1.90;;
15645;SDS011;7922;43.622;1.476;2022-11-20T13:41:56;4.37;;;2.00;;
15645;SDS011;7922;43.622;1.476;2022-11-20T13:44:24;3.00;;;2.40;;
15645;SDS011;7922;43.622;1.476;2022-11-20T13:46:50;2.40;;;2.20;;
15645;SDS011;7922;43.622;1.476;2022-11-20T13:49:37;2.30;;;2.10;;
15645;SDS011;7922;43.622;1.476;2022-11-20T13:57:43;2.83;;;2.63;;
15645;SDS011;7922;43.622;1.476;2022-11-20T14:00:12;3.63;;;3.17;;
15645;SDS011;7922;43.622;1.476;2022-11-20T14:02:42;3.90;;;3.60;;
15645;SDS011;7922;43.622;1.476;2022-11-20T14:05:22;6.27;;;4.83;;
15645;SDS011;7922;43.622;1.476;2022-11-20T14:07:48;8.53;;;6.03;;
15645;SDS011;7922;43.622;1.476;2022-11-20T14:10:25;6.90;;;5.33;;
15645;SDS011;7922;43.622;1.476;2022-11-20T14:12:52;5.40;;;3.30;;
15645;SDS011;7922;43.622;1.476;2022-11-20T14:15:31;3.50;;;2.63;;
15645;SDS011;7922;43.622;1.476;2022-11-20T14:17:58;3.53;;;2.43;;
15645;SDS011;7922;43.622;1.476;2022-11-20T14:20:25;5.93;;;2.70;;
15645;SDS011;7922;43.622;1.476;2022-11-20T14:22:53;3.70;;;2.67;;
15645;SDS011;7922;43.622;1.476;2022-11-20T14:25:20;4.23;;;2.67;;
15645;SDS011;7922;43.622;1.476;2022-11-20T14:27:57;4.87;;;2.20;;
15645;SDS011;7922;43.622;1.476;2022-11-20T14:30:24;7.17;;;2.40;;
15645;SDS011;7922;43.622;1.476;2022-11-20T14:32:50;8.03;;;2.70;;
15645;SDS011;7922;43.622;1.476;2022-11-20T14:35:24;5.70;;;3.13;;
15645;SDS011;7922;43.622;1.476;2022-11-20T14:37:51;5.70;;;2.47;;
15645;SDS011;7922;43.622;1.476;2022-11-20T14:40:35;5.17;;;2.33;;
15645;SDS011;7922;43.622;1.476;2022-11-20T14:43:01;5.73;;;2.50;;
15645;SDS011;7922;43.622;1.476;2022-11-20T14:45:27;7.67;;;2.60;;
15645;SDS011;7922;43.622;1.476;2022-11-20T14:47:56;10.93;;;3.20;;
15645;SDS011;7922;43.622;1.476;2022-11-20T14:50:23;7.27;;;3.30;;
15645;SDS011;7922;43.622;1.476;2022-11-20T14:52:54;6.47;;;2.80;;
15645;SDS011;7922;43.622;1.476;2022-11-20T14:55:28;5.83;;;2.67;;
15645;SDS011;7922;43.622;1.476;2022-11-20T14:57:58;7.30;;;2.40;;
15645;SDS011;7922;43.622;1.476;2022-11-20T15:00:27;4.57;;;2.33;;
15645;SDS011;7922;43.622;1.476;2022-11-20T15:02:53;7.80;;;2.50;;
15645;SDS011;7922;43.622;1.476;2022-11-20T15:05:24;8.03;;;2.80;;
15645;SDS011;7922;43.622;1.476;2022-11-20T15:07:52;7.63;;;2.87;;
15645;SDS011;7922;43.622;1.476;2022-11-20T15:10:30;7.33;;;2.80;;
15645;SDS011;7922;43.622;1.476;2022-11-20T15:12:56;11.73;;;3.17;;
15645;SDS011;7922;43.622;1.476;2022-11-20T15:18:16;7.30;;;2.50;;
15645;SDS011;7922;43.622;1.476;2022-11-20T15:20:43;10.77;;;2.70;;
15645;SDS011;7922;43.622;1.476;2022-11-20T15:23:12;6.93;;;2.50;;
15645;SDS011;7922;43.622;1.476;2022-11-20T15:25:40;10.83;;;2.80;;
15645;SDS011;7922;43.622;1.476;2022-11-20T15:28:14;9.47;;;2.70;;
15645;SDS011;7922;43.622;1.476;2022-11-20T15:30:43;11.73;;;3.70;;
15645;SDS011;7922;43.622;1.476;2022-11-20T15:33:09;15.67;;;3.50;;
15645;SDS011;7922;43.622;1.476;2022-11-20T15:35:35;10.43;;;3.40;;
15645;SDS011;7922;43.622;1.476;2022-11-20T15:38:00;10.73;;;3.40;;
15645;SDS011;7922;43.622;1.476;2022-11-20T15:40:25;15.70;;;4.30;;
15645;SDS011;7922;43.622;1.476;2022-11-20T15:42:50;12.73;;;3.77;;
15645;SDS011;7922;43.622;1.476;2022-11-20T15:45:16;8.40;;;2.97;;
15645;SDS011;7922;43.622;1.476;2022-11-20T15:47:41;10.23;;;3.27;;
15645;SDS011;7922;43.622;1.476;2022-11-20T15:50:09;9.30;;;3.90;;
15645;SDS011;7922;43.622;1.476;2022-11-20T15:52:38;8.70;;;3.77;;
15645;SDS011;7922;43.622;1.476;2022-11-20T15:55:07;10.37;;;2.83;;
15645;SDS011;7922;43.622;1.476;2022-11-20T15:57:34;9.87;;;3.20;;
15645;SDS011;7922;43.622;1.476;2022-11-20T16:00:00;13.23;;;3.53;;
15645;SDS011;7922;43.622;1.476;2022-11-20T16:02:25;12.20;;;3.63;;
15645;SDS011;7922;43.622;1.476;2022-11-20T16:04:50;9.93;;;4.10;;
15645;SDS011;7922;43.622;1.476;2022-11-20T16:07:16;11.57;;;4.17;;
15645;SDS011;7922;43.622;1.476;2022-11-20T16:09:41;9.60;;;3.47;;
15645;SDS011;7922;43.622;1.476;2022-11-20T16:12:07;11.60;;;3.53;;
15645;SDS011;7922;43.622;1.476;2022-11-20T16:14:34;14.47;;;3.73;;
15645;SDS011;7922;43.622;1.476;2022-11-20T16:16:59;10.17;;;3.40;;
15645;SDS011;7922;43.622;1.476;2022-11-20T16:19:24;13.83;;;3.80;;
15645;SDS011;7922;43.622;1.476;2022-11-20T16:21:50;10.17;;;4.03;;
15645;SDS011;7922;43.622;1.476;2022-11-20T16:24:15;10.97;;;3.93;;
15645;SDS011;7922;43.622;1.476;2022-11-20T16:26:41;9.47;;;4.13;;
15645;SDS011;7922;43.622;1.476;2022-11-20T16:29:06;9.63;;;3.70;;
15645;SDS011;7922;43.622;1.476;2022-11-20T16:31:32;13.17;;;4.80;;
15645;SDS011;7922;43.622;1.476;2022-11-20T16:33:58;12.57;;;4.37;;
15645;SDS011;7922;43.622;1.476;2022-11-20T16:36:26;13.80;;;4.20;;
15645;SDS011;7922;43.622;1.476;2022-11-20T16:38:52;14.57;;;4.83;;
15645;SDS011;7922;43.622;1.476;2022-11-20T16:41:18;10.80;;;4.13;;